Worthington, Ohio
Current Conditions -  °F | °C
As of 10:53 PM on Tuesday 21 Oct 2014 (Local Time) from KOSU Reporting Station
Overcast Overcast  
Wind Chill: 39°   Ceiling: 1700
Heat Index: 45°   Visibility: 10mi
Dew Point: 39°   Wind: 14mph
Humidity: 80%   Direction: 340°NNW
Pressure: 30.15"   Gusts: NA
Location:  40.1°N, 83.02°W
Report Text: KOSU 220253Z AUTO 34012KT 10SM BKN017 OVC024 07/04 A3015 RMK AO2 SLP215 T00720039 53008
Loading
Personal Weather Stations






























Interactive Weather Map
Tropical Storm Tracking
New forecast layout! Learn more

10-Day Weather Forecast

Advertisements
Track Severe Weather on mobile